createdAt,value
2019-02-23T00:00:33.451Z,4.20
2019-02-23T00:05:36.723Z,4.25
2019-02-23T00:10:40.149Z,6.87
2019-02-23T00:15:43.556Z,6.10
2019-02-23T00:20:46.889Z,5.53
2019-02-23T00:25:50.172Z,6.90
2019-02-23T00:30:53.536Z,4.60
2019-02-23T00:35:57.082Z,5.58
2019-02-23T00:41:01.651Z,4.92
2019-02-23T00:46:05.053Z,4.33
2019-02-23T00:51:08.569Z,5.65
2019-02-23T00:56:11.849Z,4.75
2019-02-23T01:01:15.281Z,5.00
2019-02-23T01:06:18.565Z,4.22
2019-02-23T01:11:22.009Z,4.87
2019-02-23T01:16:25.420Z,5.42
2019-02-23T01:21:28.832Z,6.28
2019-02-23T01:26:32.258Z,4.95
2019-02-23T01:31:35.600Z,5.62
2019-02-23T01:36:39.874Z,4.72
2019-02-23T01:41:43.311Z,4.10
2019-02-23T01:46:47.168Z,4.30
2019-02-23T01:51:50.575Z,4.53
2019-02-23T01:56:53.966Z,4.70
2019-02-23T02:01:57.376Z,4.08
2019-02-23T02:07:00.795Z,4.50
2019-02-23T02:12:08.152Z,3.83
2019-02-23T02:17:12.017Z,3.08
2019-02-23T02:22:15.302Z,4.47
2019-02-23T02:27:18.758Z,3.77
2019-02-23T02:32:22.134Z,5.47
2019-02-23T02:37:26.922Z,5.28
2019-02-23T02:42:30.377Z,3.52
2019-02-23T02:47:34.862Z,3.92
2019-02-23T02:52:38.954Z,4.10
2019-02-23T02:57:42.403Z,4.95
2019-02-23T03:02:45.818Z,5.65
2019-02-23T03:07:49.238Z,4.05
2019-02-23T03:12:53.556Z,3.15
2019-02-23T03:17:58.617Z,3.95
2019-02-23T03:23:01.907Z,4.08
2019-02-23T03:28:06.881Z,4.20
2019-02-23T03:33:10.176Z,4.08
2019-02-23T03:38:13.723Z,4.28
2019-02-23T03:43:17.605Z,4.62
2019-02-23T03:48:21.059Z,3.40
2019-02-23T03:53:24.341Z,4.12
2019-02-23T03:58:27.773Z,4.92
2019-02-23T04:03:31.202Z,6.67
2019-02-23T04:08:34.702Z,3.87
2019-02-23T04:13:38.119Z,3.65
2019-02-23T04:18:42.539Z,3.92
2019-02-23T04:23:46.071Z,4.30
2019-02-23T04:28:49.538Z,4.30
2019-02-23T04:33:52.985Z,4.75
2019-02-23T04:38:56.413Z,5.28
2019-02-23T04:44:00.382Z,3.83
2019-02-23T04:49:03.735Z,4.40
2019-02-23T04:54:07.169Z,3.15
2019-02-23T04:59:10.451Z,5.28
2019-02-23T05:04:14.917Z,4.28
2019-02-23T05:09:20.085Z,3.98
2019-02-23T05:14:23.491Z,3.42
2019-02-23T05:19:26.901Z,3.70
2019-02-23T05:24:30.187Z,3.98
2019-02-23T05:29:33.624Z,4.37
2019-02-23T05:34:38.189Z,4.53
2019-02-23T05:39:41.648Z,3.90
2019-02-23T05:44:45.043Z,5.60
2019-02-23T05:49:50.989Z,5.53
2019-02-23T05:54:54.485Z,3.05
2019-02-23T05:59:57.777Z,4.28
2019-02-23T06:05:01.415Z,4.17
2019-02-23T06:10:07.633Z,4.92
2019-02-23T06:15:12.402Z,5.37
2019-02-23T06:20:16.327Z,3.75
2019-02-23T06:25:19.709Z,3.47
2019-02-23T06:30:22.999Z,3.80
2019-02-23T06:35:28.042Z,5.10
2019-02-23T06:40:32.411Z,4.00
2019-02-23T06:45:37.289Z,5.35
2019-02-23T06:50:40.661Z,5.05
2019-02-23T06:55:43.950Z,4.72
2019-02-23T07:00:49.030Z,10.10
2019-02-23T07:05:52.856Z,3.70
2019-02-23T07:10:56.143Z,5.05
2019-02-23T07:16:00.199Z,5.03
2019-02-23T07:21:04.078Z,6.30
2019-02-23T07:26:07.462Z,4.58
2019-02-23T07:31:11.837Z,5.70
2019-02-23T07:36:16.889Z,5.75
2019-02-23T07:41:20.456Z,8.65
2019-02-23T07:46:23.853Z,3.52
2019-02-23T07:51:27.253Z,5.03
2019-02-23T07:56:30.650Z,8.73
2019-02-23T08:01:34.066Z,3.87
2019-02-23T08:06:37.384Z,5.17
2019-02-23T08:11:41.953Z,6.05
2019-02-23T08:16:46.024Z,4.97
2019-02-23T08:21:49.309Z,6.67
2019-02-23T08:26:53.233Z,3.72
2019-02-23T08:31:56.942Z,5.33
2019-02-23T08:37:00.645Z,7.62
2019-02-23T08:42:03.929Z,5.08
2019-02-23T08:47:07.497Z,7.45
2019-02-23T08:52:12.423Z,5.55
2019-02-23T08:57:15.781Z,4.92
2019-02-23T09:02:19.090Z,8.10
2019-02-23T09:07:22.428Z,7.95
2019-02-23T09:12:25.707Z,15.53
2019-02-23T09:17:29.728Z,6.08
2019-02-23T09:22:33.125Z,3.98
2019-02-23T09:27:37.744Z,3.55
2019-02-23T09:32:41.254Z,4.22
2019-02-23T09:37:44.708Z,6.58
2019-02-23T09:42:48.120Z,5.72
2019-02-23T09:47:53.717Z,7.92
2019-02-23T09:52:57.068Z,7.87
2019-02-23T09:58:00.357Z,6.22
2019-02-23T10:03:04.677Z,7.10
2019-02-23T10:08:08.112Z,9.50
2019-02-23T10:13:11.945Z,10.20
2019-02-23T10:18:16.069Z,9.43
2019-02-23T10:23:22.176Z,12.07
2019-02-23T10:28:24.532Z,12.18
2019-02-23T10:33:27.954Z,6.35
2019-02-23T10:38:31.241Z,6.08
2019-02-23T10:43:34.543Z,11.00
2019-02-23T10:48:37.824Z,7.42
2019-02-23T10:53:41.243Z,9.45
2019-02-23T10:58:45.994Z,9.65
2019-02-23T11:03:49.335Z,9.23
2019-02-23T11:08:53.382Z,8.00
2019-02-23T11:13:56.807Z,7.60
2019-02-23T11:19:00.088Z,7.42
2019-02-23T11:24:03.471Z,7.22
2019-02-23T11:29:06.829Z,7.47
2019-02-23T11:34:10.152Z,8.15
2019-02-23T11:39:13.823Z,11.45
2019-02-23T11:44:17.284Z,6.90
2019-02-23T11:49:20.566Z,7.35
2019-02-23T11:54:23.935Z,9.83
2019-02-23T11:59:27.536Z,8.48
2019-02-23T12:04:30.890Z,7.15
2019-02-23T12:09:34.354Z,9.68
2019-02-23T12:14:37.878Z,11.65
2019-02-23T12:19:41.432Z,9.30
2019-02-23T12:24:44.709Z,7.22
2019-02-23T12:29:47.988Z,7.85
2019-02-23T12:34:51.267Z,7.42
2019-02-23T12:39:54.552Z,8.20
2019-02-23T12:44:58.029Z,7.95
2019-02-23T12:50:01.453Z,8.43
2019-02-23T12:55:06.786Z,8.50
2019-02-23T13:00:15.656Z,8.43
2019-02-23T13:05:19.118Z,9.53
2019-02-23T13:10:22.404Z,6.65
2019-02-23T13:15:34.811Z,10.55
2019-02-23T13:20:52.869Z,6.53
2019-02-23T13:26:32.637Z,10.30
2019-02-23T13:31:42.500Z,11.15
2019-02-23T13:36:49.057Z,10.30
2019-02-23T13:42:12.159Z,8.70
2019-02-23T13:47:24.137Z,8.08
2019-02-23T13:52:54.845Z,8.33
2019-02-23T13:58:25.375Z,6.72
2019-02-23T14:03:31.929Z,9.35
2019-02-23T14:08:57.269Z,9.60
2019-02-23T14:14:09.629Z,12.23
2019-02-23T14:19:25.059Z,10.93
2019-02-23T14:24:49.520Z,8.10
2019-02-23T14:30:02.178Z,7.92
2019-02-23T14:35:17.489Z,10.65
2019-02-23T14:40:24.037Z,9.03
2019-02-23T14:45:42.734Z,7.87
2019-02-23T14:51:19.960Z,21.87
2019-02-23T14:56:32.570Z,20.50
2019-02-23T15:01:39.113Z,16.17
2019-02-23T15:07:05.042Z,15.23
2019-02-23T15:12:28.655Z,17.92
2019-02-23T15:17:38.261Z,20.82
2019-02-23T15:23:08.997Z,21.62
2019-02-23T15:28:39.629Z,27.40
2019-02-23T15:34:00.454Z,21.42
2019-02-23T15:39:23.215Z,24.57
2019-02-23T15:45:03.401Z,26.50
2019-02-23T15:50:13.102Z,23.15
2019-02-23T15:55:25.573Z,31.93
2019-02-23T16:00:21.883Z,31.02
2019-02-23T16:05:26.205Z,35.33
2019-02-23T16:10:29.968Z,30.30
2019-02-23T16:15:33.778Z,40.58
2019-02-23T16:20:39.363Z,29.37
2019-02-23T16:25:49.362Z,25.20
2019-02-23T16:30:56.803Z,27.82
2019-02-23T16:36:07.588Z,33.55
2019-02-23T16:41:12.349Z,28.50
2019-02-23T16:46:15.776Z,33.40
2019-02-23T16:51:24.544Z,27.35
2019-02-23T16:56:29.995Z,36.35
2019-02-23T17:01:53.173Z,39.10
2019-02-23T17:07:00.932Z,47.27
2019-02-23T17:12:04.744Z,36.10
2019-02-23T17:17:12.829Z,32.33
2019-02-23T17:22:18.517Z,37.40
2019-02-23T17:27:35.504Z,39.05
2019-02-23T17:32:28.796Z,41.15
2019-02-23T17:37:35.185Z,33.18
2019-02-23T17:42:40.437Z,36.73
2019-02-23T18:14:25.480Z,37.05
2019-02-23T18:24:58.662Z,36.50
2019-02-23T18:30:11.423Z,40.20
2019-02-23T18:40:48.245Z,40.28
2019-02-23T18:51:16.251Z,50.50
2019-02-23T19:01:56.197Z,47.70
2019-02-23T19:06:59.047Z,49.27
2019-02-23T19:12:05.951Z,59.77
2019-02-23T19:17:24.469Z,51.23
2019-02-23T19:22:33.584Z,58.68
2019-02-23T19:32:55.454Z,49.05
2019-02-23T19:38:01.275Z,52.73
2019-02-23T19:43:10.242Z,44.03
2019-02-23T19:48:16.536Z,48.08
2019-02-23T19:53:21.212Z,50.90
2019-02-23T19:58:28.714Z,44.10
2019-02-23T20:20:15.201Z,44.20
2019-02-23T20:25:31.120Z,47.45
2019-02-23T20:30:43.203Z,54.70
2019-02-23T20:35:57.768Z,56.23
2019-02-23T21:08:43.992Z,51.98
2019-02-23T21:13:51.918Z,51.33
2019-02-23T21:19:06.277Z,52.38
2019-02-23T21:29:22.951Z,46.75
2019-02-23T21:34:33.218Z,48.35
2019-02-23T21:45:26.107Z,46.28
2019-02-23T21:50:37.493Z,56.77
2019-02-23T21:56:00.999Z,40.70
2019-02-23T22:01:07.374Z,47.43
2019-02-23T22:06:13.843Z,32.38
2019-02-23T22:11:30.984Z,41.45
2019-02-23T22:16:35.900Z,53.50
2019-02-23T22:27:07.276Z,47.83
2019-02-23T22:37:25.856Z,46.60
2019-02-23T22:42:33.461Z,47.80
2019-02-23T22:47:42.829Z,46.42
2019-02-23T22:52:55.201Z,50.88
2019-02-23T22:58:01.267Z,42.10
2019-02-23T23:03:20.485Z,41.37
2019-02-23T23:08:33.175Z,44.50
2019-02-23T23:13:40.071Z,43.87
2019-02-23T23:18:46.037Z,46.68
2019-02-23T23:23:55.837Z,46.15
2019-02-23T23:29:01.679Z,45.30
2019-02-23T23:34:05.193Z,46.77
2019-02-23T23:39:10.739Z,47.60
2019-02-23T23:44:16.293Z,40.67
2019-02-23T23:49:22.888Z,35.05
2019-02-23T23:54:27.592Z,39.35
2019-02-23T23:59:35.631Z,36.73
